Terminal Aerodrome Forecast
Issued by NWS Cleveland, OH

Home | Current Version | Previous Version | Graphics & Text | Print | Product List | Glossary Off
Versions: 1 2 3 4 5 6 7 8 9 10 11 12 13 14 15 16

000
FTUS41 KCLE 310256 AAB
TAFCAK
TAF AMD
KCAK 310256Z 3103/3124 21004KT P6SM VCTS SCT050CB BKN120
      TEMPO 3103/3105 18009KT -SHRA BKN050
     FM310800 21003KT 4SM BR SKC
     FM311300 23006KT P6SM SCT030
     FM311700 25008KT P6SM BKN050=

USA.gov is the U.S. government's official web portal to all federal, state and local government web resources and services.